sensor_id;sensor_type;location;lat;lon;timestamp;pressure;altitude;pressure_sealevel;temperature;humidity
216;BME280;64590;48.81286795;9.14184224;2023-05-23T00:02:26;98085.09;;;17.12;87.85
216;BME280;64590;48.81286795;9.14184224;2023-05-23T00:04:54;98074.22;;;17.14;87.21
216;BME280;64590;48.81286795;9.14184224;2023-05-23T00:07:26;98089.22;;;17.08;88.47
216;BME280;64590;48.81286795;9.14184224;2023-05-23T00:09:56;98092.00;;;17.08;88.20
216;BME280;64590;48.81286795;9.14184224;2023-05-23T00:12:25;98060.19;;;16.85;88.47
216;BME280;64590;48.81286795;9.14184224;2023-05-23T00:14:54;98082.47;;;17.05;88.79
216;BME280;64590;48.81286795;9.14184224;2023-05-23T00:17:22;98024.72;;;16.79;88.28
216;BME280;64590;48.81286795;9.14184224;2023-05-23T00:19:51;98076.00;;;16.92;89.02
216;BME280;64590;48.81286795;9.14184224;2023-05-23T00:22:20;98046.59;;;16.84;88.88
216;BME280;64590;48.81286795;9.14184224;2023-05-23T00:24:51;98088.72;;;16.97;89.46
216;BME280;64590;48.81286795;9.14184224;2023-05-23T00:27:22;98081.53;;;16.95;89.47
216;BME280;64590;48.81286795;9.14184224;2023-05-23T00:29:50;98035.34;;;16.71;89.18
216;BME280;64590;48.81286795;9.14184224;2023-05-23T00:32:18;98077.34;;;17.16;88.59
216;BME280;64590;48.81286795;9.14184224;2023-05-23T00:34:47;98019.56;;;16.77;88.30
216;BME280;64590;48.81286795;9.14184224;2023-05-23T00:37:18;98078.09;;;17.04;88.90
216;BME280;64590;48.81286795;9.14184224;2023-05-23T00:39:46;98096.84;;;17.07;88.98
216;BME280;64590;48.81286795;9.14184224;2023-05-23T00:42:17;98078.78;;;17.08;88.51
216;BME280;64590;48.81286795;9.14184224;2023-05-23T00:44:46;98087.19;;;17.08;88.88
216;BME280;64590;48.81286795;9.14184224;2023-05-23T00:47:14;98086.16;;;17.02;89.51
216;BME280;64590;48.81286795;9.14184224;2023-05-23T00:49:43;98099.78;;;17.16;88.74
216;BME280;64590;48.81286795;9.14184224;2023-05-23T00:52:13;98089.09;;;17.11;89.06
216;BME280;64590;48.81286795;9.14184224;2023-05-23T00:54:42;98093.44;;;17.00;89.76
216;BME280;64590;48.81286795;9.14184224;2023-05-23T00:57:10;98094.13;;;17.04;89.48
216;BME280;64590;48.81286795;9.14184224;2023-05-23T00:59:42;98100.09;;;17.06;89.29
216;BME280;64590;48.81286795;9.14184224;2023-05-23T01:02:13;98111.78;;;17.17;89.34
216;BME280;64590;48.81286795;9.14184224;2023-05-23T01:04:42;98108.09;;;17.20;89.30
216;BME280;64590;48.81286795;9.14184224;2023-05-23T01:07:11;98102.59;;;17.16;89.10
216;BME280;64590;48.81286795;9.14184224;2023-05-23T01:09:39;98112.56;;;17.17;89.11
216;BME280;64590;48.81286795;9.14184224;2023-05-23T01:12:16;98095.72;;;17.05;89.67
216;BME280;64590;48.81286795;9.14184224;2023-05-23T01:14:57;98105.13;;;17.11;89.62
216;BME280;64590;48.81286795;9.14184224;2023-05-23T01:17:32;98108.94;;;17.04;89.88
216;BME280;64590;48.81286795;9.14184224;2023-05-23T01:20:06;98111.94;;;16.97;89.83
216;BME280;64590;48.81286795;9.14184224;2023-05-23T01:22:58;98087.16;;;16.95;89.71
216;BME280;64590;48.81286795;9.14184224;2023-05-23T01:25:38;98071.78;;;16.71;89.96
216;BME280;64590;48.81286795;9.14184224;2023-05-23T01:28:18;98108.88;;;16.91;90.04
216;BME280;64590;48.81286795;9.14184224;2023-05-23T01:30:51;98104.94;;;16.89;90.41
216;BME280;64590;48.81286795;9.14184224;2023-05-23T01:33:19;98113.09;;;16.83;90.97
216;BME280;64590;48.81286795;9.14184224;2023-05-23T01:35:49;98058.19;;;16.53;90.93
216;BME280;64590;48.81286795;9.14184224;2023-05-23T01:38:18;98114.25;;;16.86;90.86
216;BME280;64590;48.81286795;9.14184224;2023-05-23T01:40:46;98113.38;;;16.73;91.44
216;BME280;64590;48.81286795;9.14184224;2023-05-23T01:43:17;98107.84;;;16.85;91.02
216;BME280;64590;48.81286795;9.14184224;2023-05-23T01:45:46;98101.88;;;16.83;90.92
216;BME280;64590;48.81286795;9.14184224;2023-05-23T01:48:15;98108.22;;;16.71;91.39
216;BME280;64590;48.81286795;9.14184224;2023-05-23T01:50:44;98106.78;;;16.63;91.56
216;BME280;64590;48.81286795;9.14184224;2023-05-23T01:53:15;98056.47;;;16.27;91.77
216;BME280;64590;48.81286795;9.14184224;2023-05-23T01:55:44;98118.53;;;16.74;91.55
216;BME280;64590;48.81286795;9.14184224;2023-05-23T01:58:13;98120.09;;;16.75;91.20
216;BME280;64590;48.81286795;9.14184224;2023-05-23T02:00:44;98128.09;;;16.77;91.40
216;BME280;64590;48.81286795;9.14184224;2023-05-23T02:03:13;98122.72;;;16.66;91.85
216;BME280;64590;48.81286795;9.14184224;2023-05-23T02:05:42;98115.72;;;16.58;92.33
216;BME280;64590;48.81286795;9.14184224;2023-05-23T02:08:10;98113.28;;;16.60;92.06
216;BME280;64590;48.81286795;9.14184224;2023-05-23T02:10:39;98113.81;;;16.71;91.83
216;BME280;64590;48.81286795;9.14184224;2023-05-23T02:13:07;98104.94;;;16.56;92.00
216;BME280;64590;48.81286795;9.14184224;2023-05-23T02:15:36;98049.13;;;16.17;92.19
216;BME280;64590;48.81286795;9.14184224;2023-05-23T02:18:07;98112.25;;;16.70;91.67
216;BME280;64590;48.81286795;9.14184224;2023-05-23T02:20:38;98121.47;;;16.67;91.48
216;BME280;64590;48.81286795;9.14184224;2023-05-23T02:23:08;98129.09;;;16.66;91.50
216;BME280;64590;48.81286795;9.14184224;2023-05-23T02:25:37;98086.56;;;16.55;91.46
216;BME280;64590;48.81286795;9.14184224;2023-05-23T02:28:05;98106.00;;;16.62;91.13
216;BME280;64590;48.81286795;9.14184224;2023-05-23T02:30:36;98125.47;;;16.70;91.32
216;BME280;64590;48.81286795;9.14184224;2023-05-23T02:33:07;98108.69;;;16.66;91.26
216;BME280;64590;48.81286795;9.14184224;2023-05-23T02:35:35;98117.56;;;16.81;91.38
216;BME280;64590;48.81286795;9.14184224;2023-05-23T02:38:04;98124.38;;;16.63;91.25
216;BME280;64590;48.81286795;9.14184224;2023-05-23T02:40:32;98065.31;;;16.25;91.33
216;BME280;64590;48.81286795;9.14184224;2023-05-23T02:43:00;98102.69;;;16.51;91.39
216;BME280;64590;48.81286795;9.14184224;2023-05-23T02:45:29;98137.47;;;16.70;91.11
216;BME280;64590;48.81286795;9.14184224;2023-05-23T02:47:58;98082.97;;;16.38;90.97
216;BME280;64590;48.81286795;9.14184224;2023-05-23T02:50:29;98122.09;;;16.91;90.01
216;BME280;64590;48.81286795;9.14184224;2023-05-23T02:52:58;98123.63;;;16.79;90.35
216;BME280;64590;48.81286795;9.14184224;2023-05-23T02:55:26;98133.25;;;16.78;90.76
216;BME280;64590;48.81286795;9.14184224;2023-05-23T02:57:56;98133.00;;;16.73;90.60
216;BME280;64590;48.81286795;9.14184224;2023-05-23T03:00:25;98141.84;;;16.71;90.55
216;BME280;64590;48.81286795;9.14184224;2023-05-23T03:02:56;98128.31;;;16.50;91.27
216;BME280;64590;48.81286795;9.14184224;2023-05-23T03:05:24;98142.69;;;16.68;91.05
216;BME280;64590;48.81286795;9.14184224;2023-05-23T03:07:55;98146.66;;;16.71;90.54
216;BME280;64590;48.81286795;9.14184224;2023-05-23T03:10:24;98144.81;;;16.80;89.85
216;BME280;64590;48.81286795;9.14184224;2023-05-23T03:12:54;98143.75;;;16.74;90.65
216;BME280;64590;48.81286795;9.14184224;2023-05-23T03:15:22;98138.94;;;16.75;89.68
216;BME280;64590;48.81286795;9.14184224;2023-05-23T03:17:51;98152.72;;;16.85;89.60
216;BME280;64590;48.81286795;9.14184224;2023-05-23T03:20:19;98158.00;;;16.63;90.90
216;BME280;64590;48.81286795;9.14184224;2023-05-23T03:22:48;98155.66;;;16.62;90.86
216;BME280;64590;48.81286795;9.14184224;2023-05-23T03:25:19;98143.47;;;16.52;91.11
216;BME280;64590;48.81286795;9.14184224;2023-05-23T03:27:47;98158.47;;;16.62;90.84
216;BME280;64590;48.81286795;9.14184224;2023-05-23T03:30:16;98145.69;;;16.77;89.98
216;BME280;64590;48.81286795;9.14184224;2023-05-23T03:32:44;98134.53;;;16.57;90.39
216;BME280;64590;48.81286795;9.14184224;2023-05-23T03:35:13;98130.16;;;16.56;90.10
216;BME280;64590;48.81286795;9.14184224;2023-05-23T03:37:41;98161.69;;;16.60;90.63
216;BME280;64590;48.81286795;9.14184224;2023-05-23T03:40:09;98160.56;;;16.74;90.40
216;BME280;64590;48.81286795;9.14184224;2023-05-23T03:42:41;98164.91;;;16.59;90.52
216;BME280;64590;48.81286795;9.14184224;2023-05-23T03:45:09;98165.75;;;16.76;90.10
216;BME280;64590;48.81286795;9.14184224;2023-05-23T03:47:38;98148.47;;;16.61;90.13
216;BME280;64590;48.81286795;9.14184224;2023-05-23T03:50:08;98161.25;;;16.62;90.63
216;BME280;64590;48.81286795;9.14184224;2023-05-23T03:52:37;98153.38;;;16.57;90.86
216;BME280;64590;48.81286795;9.14184224;2023-05-23T03:55:06;98153.19;;;16.64;90.52
216;BME280;64590;48.81286795;9.14184224;2023-05-23T03:57:35;98157.22;;;16.63;90.57
216;BME280;64590;48.81286795;9.14184224;2023-05-23T04:00:07;98156.94;;;16.57;90.85
216;BME280;64590;48.81286795;9.14184224;2023-05-23T04:02:42;98148.81;;;16.63;90.73
216;BME280;64590;48.81286795;9.14184224;2023-05-23T04:05:12;98145.84;;;16.54;90.29
216;BME280;64590;48.81286795;9.14184224;2023-05-23T04:07:42;98150.22;;;16.55;90.69
216;BME280;64590;48.81286795;9.14184224;2023-05-23T04:10:10;98163.19;;;16.65;90.66
216;BME280;64590;48.81286795;9.14184224;2023-05-23T04:12:39;98168.16;;;16.57;90.98
216;BME280;64590;48.81286795;9.14184224;2023-05-23T04:15:15;98171.94;;;16.67;90.79
216;BME280;64590;48.81286795;9.14184224;2023-05-23T04:18:04;98154.78;;;16.65;91.03
216;BME280;64590;48.81286795;9.14184224;2023-05-23T04:20:33;98170.44;;;16.62;90.69
216;BME280;64590;48.81286795;9.14184224;2023-05-23T04:23:03;98167.72;;;16.59;91.07
216;BME280;64590;48.81286795;9.14184224;2023-05-23T04:25:35;98156.19;;;16.73;90.11
216;BME280;64590;48.81286795;9.14184224;2023-05-23T04:28:11;98153.19;;;16.48;90.96
216;BME280;64590;48.81286795;9.14184224;2023-05-23T04:30:44;98167.13;;;16.51;91.07
216;BME280;64590;48.81286795;9.14184224;2023-05-23T04:33:16;98161.75;;;16.40;91.28
216;BME280;64590;48.81286795;9.14184224;2023-05-23T04:35:45;98175.16;;;16.65;90.94
216;BME280;64590;48.81286795;9.14184224;2023-05-23T04:38:13;98164.13;;;16.58;90.62
216;BME280;64590;48.81286795;9.14184224;2023-05-23T04:40:42;98179.78;;;16.39;91.14
216;BME280;64590;48.81286795;9.14184224;2023-05-23T04:43:40;98177.09;;;16.52;91.01
216;BME280;64590;48.81286795;9.14184224;2023-05-23T04:46:17;98175.88;;;16.53;90.46
216;BME280;64590;48.81286795;9.14184224;2023-05-23T04:48:49;98194.53;;;16.44;91.51
216;BME280;64590;48.81286795;9.14184224;2023-05-23T04:51:18;98200.03;;;16.47;91.34
216;BME280;64590;48.81286795;9.14184224;2023-05-23T04:53:54;98195.84;;;16.55;90.89
216;BME280;64590;48.81286795;9.14184224;2023-05-23T04:56:23;98199.25;;;16.47;91.29
216;BME280;64590;48.81286795;9.14184224;2023-05-23T04:58:53;98174.97;;;16.40;90.75
216;BME280;64590;48.81286795;9.14184224;2023-05-23T05:01:25;98156.94;;;16.25;91.01
216;BME280;64590;48.81286795;9.14184224;2023-05-23T05:03:55;98194.44;;;16.63;90.34
216;BME280;64590;48.81286795;9.14184224;2023-05-23T05:06:24;98201.34;;;16.59;90.94
216;BME280;64590;48.81286795;9.14184224;2023-05-23T05:08:53;98213.72;;;16.61;90.64
216;BME280;64590;48.81286795;9.14184224;2023-05-23T05:11:22;98210.47;;;16.63;90.13
216;BME280;64590;48.81286795;9.14184224;2023-05-23T05:13:52;98174.53;;;16.25;91.03
216;BME280;64590;48.81286795;9.14184224;2023-05-23T05:16:20;98207.81;;;16.39;91.64
216;BME280;64590;48.81286795;9.14184224;2023-05-23T05:18:52;98210.78;;;16.49;91.36
216;BME280;64590;48.81286795;9.14184224;2023-05-23T05:21:21;98206.94;;;16.59;90.68
216;BME280;64590;48.81286795;9.14184224;2023-05-23T05:23:50;98213.44;;;16.56;90.59
216;BME280;64590;48.81286795;9.14184224;2023-05-23T05:26:20;98221.47;;;16.37;91.33
216;BME280;64590;48.81286795;9.14184224;2023-05-23T05:28:49;98181.88;;;16.19;91.30
216;BME280;64590;48.81286795;9.14184224;2023-05-23T05:31:18;98223.38;;;16.40;91.17
216;BME280;64590;48.81286795;9.14184224;2023-05-23T05:33:46;98221.41;;;16.57;90.42
216;BME280;64590;48.81286795;9.14184224;2023-05-23T05:36:18;98221.91;;;16.36;91.05
216;BME280;64590;48.81286795;9.14184224;2023-05-23T05:38:48;98210.78;;;16.49;90.62
216;BME280;64590;48.81286795;9.14184224;2023-05-23T05:41:19;98214.91;;;16.44;90.93
216;BME280;64590;48.81286795;9.14184224;2023-05-23T05:43:50;98214.31;;;16.53;90.49
216;BME280;64590;48.81286795;9.14184224;2023-05-23T05:46:19;98225.16;;;16.71;90.35
216;BME280;64590;48.81286795;9.14184224;2023-05-23T05:48:48;98211.88;;;16.55;90.85
216;BME280;64590;48.81286795;9.14184224;2023-05-23T05:51:20;98222.34;;;16.71;89.37
216;BME280;64590;48.81286795;9.14184224;2023-05-23T05:53:48;98226.00;;;16.84;89.17
216;BME280;64590;48.81286795;9.14184224;2023-05-23T05:56:17;98219.22;;;16.65;89.48
216;BME280;64590;48.81286795;9.14184224;2023-05-23T05:58:47;98228.97;;;16.60;89.95
216;BME280;64590;48.81286795;9.14184224;2023-05-23T06:01:16;98215.72;;;16.61;89.88
216;BME280;64590;48.81286795;9.14184224;2023-05-23T06:03:44;98229.88;;;16.90;89.15
216;BME280;64590;48.81286795;9.14184224;2023-05-23T06:06:12;98232.16;;;16.95;87.96
216;BME280;64590;48.81286795;9.14184224;2023-05-23T06:08:44;98227.34;;;16.95;88.01
216;BME280;64590;48.81286795;9.14184224;2023-05-23T06:11:15;98228.31;;;16.89;88.56
216;BME280;64590;48.81286795;9.14184224;2023-05-23T06:13:44;98222.63;;;16.56;89.10
216;BME280;64590;48.81286795;9.14184224;2023-05-23T06:16:12;98223.69;;;16.62;89.12
216;BME280;64590;48.81286795;9.14184224;2023-05-23T06:18:41;98225.22;;;16.83;88.22
216;BME280;64590;48.81286795;9.14184224;2023-05-23T06:21:09;98231.97;;;16.70;88.89
216;BME280;64590;48.81286795;9.14184224;2023-05-23T06:23:38;98238.72;;;16.88;88.25
216;BME280;64590;48.81286795;9.14184224;2023-05-23T06:26:10;98237.50;;;16.89;87.70
216;BME280;64590;48.81286795;9.14184224;2023-05-23T06:28:38;98238.28;;;16.90;88.38
216;BME280;64590;48.81286795;9.14184224;2023-05-23T06:31:07;98239.53;;;16.89;88.18
216;BME280;64590;48.81286795;9.14184224;2023-05-23T06:33:37;98244.06;;;16.99;88.13
216;BME280;64590;48.81286795;9.14184224;2023-05-23T06:36:06;98249.78;;;17.12;87.12
216;BME280;64590;48.81286795;9.14184224;2023-05-23T06:38:34;98243.13;;;17.06;87.28
216;BME280;64590;48.81286795;9.14184224;2023-05-23T06:41:03;98248.56;;;16.97;87.22
216;BME280;64590;48.81286795;9.14184224;2023-05-23T06:43:35;98203.91;;;16.53;87.42
216;BME280;64590;48.81286795;9.14184224;2023-05-23T06:46:24;98265.03;;;16.94;87.11
216;BME280;64590;48.81286795;9.14184224;2023-05-23T06:48:52;98273.78;;;16.80;88.37
216;BME280;64590;48.81286795;9.14184224;2023-05-23T06:51:21;98273.84;;;16.93;87.82
216;BME280;64590;48.81286795;9.14184224;2023-05-23T06:53:49;98275.72;;;16.63;88.53
216;BME280;64590;48.81286795;9.14184224;2023-05-23T06:56:18;98281.22;;;16.51;88.87
216;BME280;64590;48.81286795;9.14184224;2023-05-23T06:58:55;98271.91;;;16.37;89.21
216;BME280;64590;48.81286795;9.14184224;2023-05-23T07:01:25;98287.19;;;16.33;88.88
216;BME280;64590;48.81286795;9.14184224;2023-05-23T07:03:53;98285.13;;;16.37;89.58
216;BME280;64590;48.81286795;9.14184224;2023-05-23T07:06:23;98276.16;;;16.26;88.68
216;BME280;64590;48.81286795;9.14184224;2023-05-23T07:08:52;98275.38;;;16.25;88.66
216;BME280;64590;48.81286795;9.14184224;2023-05-23T07:11:21;98267.97;;;16.15;88.63
216;BME280;64590;48.81286795;9.14184224;2023-05-23T07:13:57;98272.97;;;16.24;87.65
216;BME280;64590;48.81286795;9.14184224;2023-05-23T07:16:52;98296.75;;;16.35;86.51
216;BME280;64590;48.81286795;9.14184224;2023-05-23T07:19:21;98269.69;;;16.09;86.87
216;BME280;64590;48.81286795;9.14184224;2023-05-23T07:21:51;98296.34;;;16.17;86.40
216;BME280;64590;48.81286795;9.14184224;2023-05-23T07:24:20;98290.00;;;16.13;85.75
216;BME280;64590;48.81286795;9.14184224;2023-05-23T07:26:49;98299.41;;;16.23;85.08
216;BME280;64590;48.81286795;9.14184224;2023-05-23T07:29:20;98286.38;;;16.16;85.23
216;BME280;64590;48.81286795;9.14184224;2023-05-23T07:31:51;98288.00;;;16.14;85.62
216;BME280;64590;48.81286795;9.14184224;2023-05-23T07:34:21;98293.66;;;16.30;85.48
216;BME280;64590;48.81286795;9.14184224;2023-05-23T07:36:57;98304.81;;;16.33;86.22
216;BME280;64590;48.81286795;9.14184224;2023-05-23T07:39:30;98312.03;;;16.31;86.69
216;BME280;64590;48.81286795;9.14184224;2023-05-23T07:42:00;98301.72;;;16.08;86.66
216;BME280;64590;48.81286795;9.14184224;2023-05-23T07:44:31;98321.16;;;15.95;86.22
216;BME280;64590;48.81286795;9.14184224;2023-05-23T07:46:59;98329.63;;;15.92;85.58
216;BME280;64590;48.81286795;9.14184224;2023-05-23T07:49:29;98319.50;;;15.98;85.35
216;BME280;64590;48.81286795;9.14184224;2023-05-23T07:51:57;98301.78;;;15.85;84.21
216;BME280;64590;48.81286795;9.14184224;2023-05-23T07:54:26;98314.47;;;15.89;84.17
216;BME280;64590;48.81286795;9.14184224;2023-05-23T07:56:58;98308.03;;;16.12;82.68
216;BME280;64590;48.81286795;9.14184224;2023-05-23T07:59:27;98313.19;;;16.14;82.27
216;BME280;64590;48.81286795;9.14184224;2023-05-23T08:01:58;98319.16;;;16.16;81.87
216;BME280;64590;48.81286795;9.14184224;2023-05-23T08:04:27;98331.16;;;16.36;81.53
216;BME280;64590;48.81286795;9.14184224;2023-05-23T08:06:56;98339.56;;;16.16;81.24
216;BME280;64590;48.81286795;9.14184224;2023-05-23T08:09:49;98324.03;;;16.31;81.31
216;BME280;64590;48.81286795;9.14184224;2023-05-23T08:12:37;98338.34;;;16.17;81.70
216;BME280;64590;48.81286795;9.14184224;2023-05-23T08:15:11;98315.28;;;16.09;81.36
216;BME280;64590;48.81286795;9.14184224;2023-05-23T08:17:47;98323.47;;;16.00;81.69
216;BME280;64590;48.81286795;9.14184224;2023-05-23T08:20:16;98326.28;;;16.00;81.19
216;BME280;64590;48.81286795;9.14184224;2023-05-23T08:22:47;98339.31;;;16.07;81.05
216;BME280;64590;48.81286795;9.14184224;2023-05-23T08:25:17;98340.38;;;16.17;81.33
216;BME280;64590;48.81286795;9.14184224;2023-05-23T08:27:45;98350.06;;;15.89;81.30
216;BME280;64590;48.81286795;9.14184224;2023-05-23T08:30:43;98343.63;;;15.92;81.45
216;BME280;64590;48.81286795;9.14184224;2023-05-23T08:33:15;98351.38;;;15.84;80.81
216;BME280;64590;48.81286795;9.14184224;2023-05-23T08:35:46;98358.94;;;15.64;81.78
216;BME280;64590;48.81286795;9.14184224;2023-05-23T08:38:16;98352.81;;;15.92;81.21
216;BME280;64590;48.81286795;9.14184224;2023-05-23T08:40:59;98357.25;;;15.90;80.99
216;BME280;64590;48.81286795;9.14184224;2023-05-23T08:43:30;98361.88;;;16.00;80.58
216;BME280;64590;48.81286795;9.14184224;2023-05-23T08:45:58;98312.78;;;15.72;80.53
216;BME280;64590;48.81286795;9.14184224;2023-05-23T08:48:33;98343.81;;;15.81;80.56
216;BME280;64590;48.81286795;9.14184224;2023-05-23T08:51:06;98359.78;;;15.84;80.49
216;BME280;64590;48.81286795;9.14184224;2023-05-23T08:53:40;98374.25;;;15.79;80.74
216;BME280;64590;48.81286795;9.14184224;2023-05-23T08:56:11;98362.50;;;15.88;80.14
216;BME280;64590;48.81286795;9.14184224;2023-05-23T08:58:44;98355.56;;;15.72;80.80
216;BME280;64590;48.81286795;9.14184224;2023-05-23T09:01:14;98379.47;;;15.77;81.09
216;BME280;64590;48.81286795;9.14184224;2023-05-23T09:03:47;98376.59;;;15.80;81.08
216;BME280;64590;48.81286795;9.14184224;2023-05-23T09:06:34;98376.84;;;15.90;81.18
216;BME280;64590;48.81286795;9.14184224;2023-05-23T09:09:04;98386.06;;;15.90;80.65
216;BME280;64590;48.81286795;9.14184224;2023-05-23T09:11:34;98366.59;;;15.83;80.05
216;BME280;64590;48.81286795;9.14184224;2023-05-23T09:14:06;98371.81;;;15.81;80.33
216;BME280;64590;48.81286795;9.14184224;2023-05-23T09:16:37;98380.81;;;15.92;80.67
216;BME280;64590;48.81286795;9.14184224;2023-05-23T09:19:14;98371.25;;;15.90;79.65
216;BME280;64590;48.81286795;9.14184224;2023-05-23T09:21:52;98369.81;;;15.81;79.57
216;BME280;64590;48.81286795;9.14184224;2023-05-23T09:24:32;98347.66;;;15.67;79.22
216;BME280;64590;48.81286795;9.14184224;2023-05-23T09:27:04;98345.03;;;15.57;78.96
216;BME280;64590;48.81286795;9.14184224;2023-05-23T09:29:36;98363.41;;;15.81;79.13
216;BME280;64590;48.81286795;9.14184224;2023-05-23T09:32:12;98393.41;;;16.04;78.70
216;BME280;64590;48.81286795;9.14184224;2023-05-23T09:34:54;98394.94;;;16.28;77.76
216;BME280;64590;48.81286795;9.14184224;2023-05-23T09:37:28;98366.06;;;16.11;77.19
216;BME280;64590;48.81286795;9.14184224;2023-05-23T09:39:58;98385.72;;;16.08;78.01
216;BME280;64590;48.81286795;9.14184224;2023-05-23T09:42:30;98386.97;;;16.27;77.39
216;BME280;64590;48.81286795;9.14184224;2023-05-23T09:45:00;98392.56;;;16.47;75.57
216;BME280;64590;48.81286795;9.14184224;2023-05-23T09:47:29;98390.53;;;16.71;75.10
216;BME280;64590;48.81286795;9.14184224;2023-05-23T09:50:00;98394.50;;;16.89;75.42
216;BME280;64590;48.81286795;9.14184224;2023-05-23T09:52:34;98398.94;;;16.71;74.71
216;BME280;64590;48.81286795;9.14184224;2023-05-23T09:55:04;98372.69;;;16.61;74.05
216;BME280;64590;48.81286795;9.14184224;2023-05-23T09:57:34;98391.28;;;16.91;73.90
216;BME280;64590;48.81286795;9.14184224;2023-05-23T10:00:05;98389.69;;;16.90;73.50
216;BME280;64590;48.81286795;9.14184224;2023-05-23T10:02:54;98386.53;;;16.68;73.35
216;BME280;64590;48.81286795;9.14184224;2023-05-23T10:05:32;98395.94;;;16.98;72.84
216;BME280;64590;48.81286795;9.14184224;2023-05-23T10:08:05;98391.63;;;17.29;72.40
216;BME280;64590;48.81286795;9.14184224;2023-05-23T10:11:15;98386.44;;;17.60;71.52
216;BME280;64590;48.81286795;9.14184224;2023-05-23T10:13:58;98401.25;;;17.12;71.72
216;BME280;64590;48.81286795;9.14184224;2023-05-23T10:16:36;98391.09;;;17.67;69.74
216;BME280;64590;48.81286795;9.14184224;2023-05-23T10:19:10;98393.78;;;17.74;69.86
216;BME280;64590;48.81286795;9.14184224;2023-05-23T10:21:49;98391.63;;;18.11;70.89
216;BME280;64590;48.81286795;9.14184224;2023-05-23T10:24:20;98394.88;;;17.93;68.32
216;BME280;64590;48.81286795;9.14184224;2023-05-23T10:26:49;98389.00;;;18.03;68.85
216;BME280;64590;48.81286795;9.14184224;2023-05-23T10:29:19;98386.31;;;17.84;67.40
216;BME280;64590;48.81286795;9.14184224;2023-05-23T10:31:48;98374.72;;;17.82;67.08
216;BME280;64590;48.81286795;9.14184224;2023-05-23T10:34:23;98396.00;;;18.12;68.62
216;BME280;64590;48.81286795;9.14184224;2023-05-23T10:36:59;98368.13;;;17.56;69.86
216;BME280;64590;48.81286795;9.14184224;2023-05-23T10:39:39;98385.16;;;17.65;69.73
216;BME280;64590;48.81286795;9.14184224;2023-05-23T10:42:15;98378.75;;;17.64;70.61
216;BME280;64590;48.81286795;9.14184224;2023-05-23T10:44:44;98347.16;;;17.28;70.39
216;BME280;64590;48.81286795;9.14184224;2023-05-23T10:47:25;98383.56;;;17.96;69.15
216;BME280;64590;48.81286795;9.14184224;2023-05-23T10:49:54;98388.94;;;17.91;68.36
216;BME280;64590;48.81286795;9.14184224;2023-05-23T10:52:25;98391.94;;;18.13;68.39
216;BME280;64590;48.81286795;9.14184224;2023-05-23T10:54:54;98388.66;;;18.01;67.11
216;BME280;64590;48.81286795;9.14184224;2023-05-23T10:57:24;98391.31;;;18.21;67.55
216;BME280;64590;48.81286795;9.14184224;2023-05-23T10:59:54;98399.13;;;18.30;66.23
216;BME280;64590;48.81286795;9.14184224;2023-05-23T11:02:25;98400.38;;;18.42;66.08
216;BME280;64590;48.81286795;9.14184224;2023-05-23T11:05:19;98385.13;;;18.43;66.07
216;BME280;64590;48.81286795;9.14184224;2023-05-23T11:08:10;98393.38;;;18.62;64.72
216;BME280;64590;48.81286795;9.14184224;2023-05-23T11:10:52;98394.88;;;18.67;62.76
216;BME280;64590;48.81286795;9.14184224;2023-05-23T11:13:22;98402.22;;;18.48;63.34
216;BME280;64590;48.81286795;9.14184224;2023-05-23T11:15:50;98397.94;;;18.44;63.59
216;BME280;64590;48.81286795;9.14184224;2023-05-23T11:18:21;98375.09;;;18.13;64.19
216;BME280;64590;48.81286795;9.14184224;2023-05-23T11:20:51;98389.50;;;18.73;62.49
216;BME280;64590;48.81286795;9.14184224;2023-05-23T11:23:23;98369.28;;;18.78;65.02
216;BME280;64590;48.81286795;9.14184224;2023-05-23T11:25:51;98412.38;;;18.29;64.88
216;BME280;64590;48.81286795;9.14184224;2023-05-23T11:28:21;98373.56;;;17.63;66.73
216;BME280;64590;48.81286795;9.14184224;2023-05-23T11:30:49;98400.25;;;18.32;66.83
216;BME280;64590;48.81286795;9.14184224;2023-05-23T11:33:18;98403.78;;;18.20;65.62
216;BME280;64590;48.81286795;9.14184224;2023-05-23T11:35:47;98400.69;;;17.86;66.78
216;BME280;64590;48.81286795;9.14184224;2023-05-23T11:38:17;98409.09;;;18.02;66.62
216;BME280;64590;48.81286795;9.14184224;2023-05-23T11:40:48;98383.84;;;17.86;66.97
216;BME280;64590;48.81286795;9.14184224;2023-05-23T11:43:16;98405.97;;;18.29;66.40
216;BME280;64590;48.81286795;9.14184224;2023-05-23T11:45:45;98407.06;;;18.48;65.62
216;BME280;64590;48.81286795;9.14184224;2023-05-23T11:48:15;98352.25;;;18.27;64.92
216;BME280;64590;48.81286795;9.14184224;2023-05-23T11:50:45;98401.81;;;18.62;63.78
216;BME280;64590;48.81286795;9.14184224;2023-05-23T11:53:14;98408.41;;;18.72;63.10
216;BME280;64590;48.81286795;9.14184224;2023-05-23T11:55:52;98409.19;;;18.73;62.82
216;BME280;64590;48.81286795;9.14184224;2023-05-23T11:58:25;98403.69;;;18.82;63.06
216;BME280;64590;48.81286795;9.14184224;2023-05-23T12:00:58;98390.19;;;18.48;63.14
216;BME280;64590;48.81286795;9.14184224;2023-05-23T12:03:26;98407.88;;;18.32;63.86
216;BME280;64590;48.81286795;9.14184224;2023-05-23T12:05:55;98399.91;;;18.30;63.85